Shullsburg, Wisconsin
Current Conditions -  °F | °C
As of 4:15 PM on Friday 24 Oct 2014 (Local Time) from KPVB Reporting Station
Scattered Clouds Scattered Clouds  
Wind Chill: 61°   Ceiling: Unl
Heat Index: 61°   Visibility: 10mi
Dew Point: 55°   Wind: 12mph
Humidity: 81%   Direction: 140°SE
Pressure: 29.92"   Gusts: NA
Location:  42.57°N, 90.23°W
Report Text: KPVB 242115Z AUTO 14010KT 10SM SCT048 SCT055 16/13 A2992 RMK AO1 T01600128
Loading
Personal Weather Stations






























Interactive Weather Map
Tropical Storm Tracking
New forecast layout! Learn more

10-Day Weather Forecast

Advertisements
Track Severe Weather on mobile